Toledo, Illinois
Current Conditions -  °F | °C
As of 7:15 AM on Monday 22 Dec 2014 (Local Time) from KMTO Reporting Station
Unknown Precip Unknown Precip  
Wind Chill: 25°   Ceiling: 6500
Heat Index: 34°   Visibility: 9mi
Dew Point: 29°   Wind: 13mph
Humidity: 82%   Direction: 130°SE
Pressure: 29.86"   Gusts: NA
Location:  39.27°N, 88.24°W
Report Text: KMTO 221315Z AUTO 13011KT 9SM UP SCT021 BKN065 OVC075 01/M02 A2986 RMK AO2 UPB04 P0000 T00111017
Loading
Personal Weather Stations






























Interactive Weather Map New forecast layout! Learn more

10-Day Weather Forecast

Advertisements
Track Severe Weather on mobile